Time;durP1;ratioP1;P1;durP2;ratioP2;P2;SDS_P1;SDS_P2;PMS_P1;PMS_P2;Temp;Humidity;BMP_temperature;BMP_pressure;BME280_temperature;BME280_humidity;BME280_pressure;Samples;Min_cycle;Max_cycle;Signal;HPM_P1;HPM_P2
2023/09/16 00:02:15;;;;;;;7.20;4.20;;;;;;;13.61;100.00;100900.47;5013766;28;20064;-78
2023/09/16 00:04:42;;;;;;;7.38;4.40;;;;;;;13.59;100.00;100899.38;5015327;28;20025;-77
2023/09/16 00:07:08;;;;;;;7.63;4.20;;;;;;;13.56;100.00;100895.41;5014894;28;20054;-77
2023/09/16 00:09:34;;;;;;;9.73;4.70;;;;;;;13.53;100.00;100900.09;5014728;28;20030;-77
2023/09/16 00:12:01;;;;;;;6.95;3.70;;;;;;;13.51;100.00;100894.06;5015620;28;20025;-76
2023/09/16 00:14:30;;;;;;;10.02;4.40;;;;;;;13.50;100.00;100894.50;5015496;28;20041;-76
2023/09/16 00:16:58;;;;;;;11.10;4.32;;;;;;;13.48;100.00;100903.63;5015997;28;20069;-77
2023/09/16 00:19:26;;;;;;;5.82;4.07;;;;;;;13.43;100.00;100906.41;5015811;28;20026;-77
2023/09/16 00:21:51;;;;;;;8.95;4.60;;;;;;;13.38;100.00;100895.63;5014403;28;20092;-76
2023/09/16 00:24:18;;;;;;;8.40;4.78;;;;;;;13.41;100.00;100901.16;4998043;28;20042;-76
2023/09/16 00:26:44;;;;;;;11.23;4.45;;;;;;;13.37;100.00;100896.94;5015452;28;20026;-76
2023/09/16 00:29:12;;;;;;;8.05;4.55;;;;;;;13.32;100.00;100901.28;5015236;28;20030;-77
2023/09/16 00:31:38;;;;;;;8.07;4.32;;;;;;;13.26;100.00;100894.66;5015559;28;20025;-76
2023/09/16 00:34:05;;;;;;;8.52;4.55;;;;;;;13.22;100.00;100891.22;5015815;28;20026;-77
2023/09/16 00:36:38;;;;;;;7.88;4.53;;;;;;;13.20;100.00;100890.91;5015787;28;20105;-77
2023/09/16 00:39:04;;;;;;;6.82;4.38;;;;;;;13.20;100.00;100888.03;5013978;28;20049;-77
2023/09/16 00:41:30;;;;;;;12.45;4.63;;;;;;;13.18;100.00;100886.97;5015175;28;20033;-75
2023/09/16 00:43:56;;;;;;;7.95;4.90;;;;;;;13.16;100.00;100883.78;5013832;28;20033;-77
2023/09/16 00:46:37;;;;;;;8.60;4.43;;;;;;;13.13;100.00;100892.13;5014273;28;20386;-78
2023/09/16 00:49:02;;;;;;;6.40;4.47;;;;;;;13.08;100.00;100884.22;5015268;28;20030;-76
2023/09/16 00:51:30;;;;;;;8.90;4.80;;;;;;;13.10;100.00;100887.34;5013785;28;20075;-76
2023/09/16 00:53:58;;;;;;;7.25;4.35;;;;;;;13.09;100.00;100882.94;4997451;28;20029;-77
2023/09/16 00:56:27;;;;;;;8.70;4.60;;;;;;;13.05;100.00;100884.38;5013846;28;20026;-78
2023/09/16 00:58:56;;;;;;;7.95;4.30;;;;;;;13.05;100.00;100890.13;5013908;28;20129;-77
2023/09/16 01:01:23;;;;;;;14.55;4.60;;;;;;;13.05;100.00;100898.75;4996824;28;20061;-77
2023/09/16 01:03:58;;;;;;;9.57;4.65;;;;;;;13.06;100.00;100904.00;5013549;28;20041;-76
2023/09/16 01:06:24;;;;;;;7.45;4.68;;;;;;;13.04;100.00;100897.97;5012253;28;20038;-76
2023/09/16 01:08:55;;;;;;;6.70;4.38;;;;;;;13.03;100.00;100898.47;5011035;28;20061;-78
2023/09/16 01:11:24;;;;;;;11.13;4.93;;;;;;;13.01;100.00;100909.63;4993803;28;20033;-76
2023/09/16 01:13:50;;;;;;;6.88;4.50;;;;;;;12.74;100.00;100856.25;5010294;28;20084;-75
2023/09/16 01:16:37;;;;;;;7.00;4.05;;;;;;;13.04;100.00;100903.72;5011342;28;20041;-75
2023/09/16 01:19:23;;;;;;;10.65;5.45;;;;;;;12.94;100.00;100893.63;5010033;28;20026;-76
2023/09/16 01:21:49;;;;;;;8.65;4.68;;;;;;;13.00;100.00;100891.63;5010309;28;20371;-77
2023/09/16 01:24:19;;;;;;;8.95;4.72;;;;;;;13.01;100.00;100890.34;5012247;28;20032;-77
2023/09/16 01:26:48;;;;;;;6.50;4.18;;;;;;;12.98;100.00;100887.69;5012987;28;20189;-77
2023/09/16 01:29:37;;;;;;;10.13;4.80;;;;;;;12.96;100.00;100893.09;5013551;28;20025;-77
2023/09/16 01:32:06;;;;;;;9.57;4.78;;;;;;;12.91;100.00;100885.19;5012205;28;20022;-76
2023/09/16 01:34:49;;;;;;;9.55;4.57;;;;;;;12.90;100.00;100889.38;4994446;28;20026;-76
2023/09/16 01:37:21;;;;;;;7.80;4.30;;;;;;;12.85;100.00;100884.31;5009665;28;20088;-76
2023/09/16 01:39:55;;;;;;;8.43;4.88;;;;;;;12.82;100.00;100885.31;4993797;28;20117;-75
2023/09/16 01:42:22;;;;;;;8.43;4.97;;;;;;;12.74;100.00;100878.38;4993523;28;20132;-77
2023/09/16 01:44:54;;;;;;;10.18;5.20;;;;;;;12.75;100.00;100879.97;5009992;28;20109;-76
2023/09/16 01:47:21;;;;;;;9.23;4.95;;;;;;;12.70;100.00;100885.09;5011363;28;20033;-76
2023/09/16 01:49:47;;;;;;;7.63;5.30;;;;;;;12.69;100.00;100880.66;5011169;28;20029;-75
2023/09/16 01:52:16;;;;;;;9.75;5.03;;;;;;;12.66;100.00;100887.38;5011484;28;20593;-77
2023/09/16 01:54:44;;;;;;;7.47;5.00;;;;;;;12.64;100.00;100878.50;5011209;28;20025;-76
2023/09/16 01:57:11;;;;;;;8.82;5.57;;;;;;;12.65;100.00;100885.78;4889054;28;3524202;-76
2023/09/16 01:59:36;;;;;;;7.53;4.88;;;;;;;12.64;100.00;100880.56;5011904;28;20042;-77
2023/09/16 02:02:03;;;;;;;7.60;5.13;;;;;;;12.62;100.00;100877.38;5011880;28;20052;-76
2023/09/16 02:04:28;;;;;;;7.10;4.93;;;;;;;12.63;100.00;100884.72;5011633;28;20097;-77
2023/09/16 02:06:54;;;;;;;7.75;4.28;;;;;;;12.62;100.00;100878.19;5011673;28;20029;-76
2023/09/16 02:09:20;;;;;;;9.15;5.00;;;;;;;12.62;100.00;100878.19;5013919;28;20038;-75
2023/09/16 02:11:47;;;;;;;5.72;4.07;;;;;;;12.63;100.00;100879.75;4996334;28;20041;-75
2023/09/16 02:14:16;;;;;;;7.57;4.47;;;;;;;12.63;100.00;100876.09;5012607;28;20068;-76
2023/09/16 02:16:52;;;;;;;9.65;4.97;;;;;;;12.57;100.00;100875.19;4995538;28;20030;-76
2023/09/16 02:19:18;;;;;;;14.80;5.25;;;;;;;12.50;100.00;100878.47;5014227;28;20046;-76
2023/09/16 02:21:44;;;;;;;8.07;4.72;;;;;;;12.48;100.00;100884.69;5013316;28;20040;-76
2023/09/16 02:24:11;;;;;;;7.95;4.50;;;;;;;12.46;100.00;100875.78;5013928;28;20018;-76
2023/09/16 02:26:37;;;;;;;10.52;4.80;;;;;;;12.50;100.00;100878.47;5012433;28;20218;-77
2023/09/16 02:29:04;;;;;;;8.18;4.68;;;;;;;12.48;100.00;100869.56;5013727;28;20026;-76
2023/09/16 02:31:32;;;;;;;7.07;4.70;;;;;;;12.40;100.00;100868.38;5012603;28;20034;-76
2023/09/16 02:34:02;;;;;;;8.80;4.82;;;;;;;12.40;100.00;100874.09;5013786;28;20030;-76
2023/09/16 02:36:28;;;;;;;9.77;4.80;;;;;;;12.43;100.00;100875.97;5012460;28;20486;-77
2023/09/16 02:38:53;;;;;;;8.68;5.43;;;;;;;12.37;100.00;100867.28;4979751;28;20065;-75
2023/09/16 02:41:20;;;;;;;10.45;5.22;;;;;;;12.41;100.00;100870.72;5013831;28;20437;-75
2023/09/16 02:43:49;;;;;;;7.65;5.20;;;;;;;12.41;100.00;100862.13;5013878;28;20041;-76
2023/09/16 02:46:17;;;;;;;9.65;4.88;;;;;;;12.37;100.00;100855.81;5013697;28;20110;-75
2023/09/16 02:48:43;;;;;;;7.03;4.80;;;;;;;12.36;100.00;100859.94;5012514;28;20092;-75
2023/09/16 02:51:09;;;;;;;8.60;5.15;;;;;;;12.38;100.00;100865.19;4995950;28;20064;-75
2023/09/16 02:53:44;;;;;;;10.80;4.90;;;;;;;12.35;100.00;100860.44;5013812;28;20034;-76
2023/09/16 02:56:09;;;;;;;8.23;4.63;;;;;;;12.30;100.00;100861.91;5013842;28;20041;-76
2023/09/16 02:58:36;;;;;;;8.73;4.78;;;;;;;12.28;100.00;100859.53;5012084;28;20404;-76
2023/09/16 03:01:12;;;;;;;7.35;4.45;;;;;;;12.17;100.00;100844.19;5012300;28;20025;-74
2023/09/16 03:03:38;;;;;;;7.75;4.25;;;;;;;12.16;100.00;100856.91;5013660;28;20030;-74
2023/09/16 03:06:06;;;;;;;6.75;4.25;;;;;;;12.11;100.00;100855.53;5013708;28;20469;-75
2023/09/16 03:08:45;;;;;;;8.43;4.80;;;;;;;12.10;100.00;100862.56;4994695;28;20103;-75
2023/09/16 03:11:12;;;;;;;8.77;4.55;;;;;;;11.96;100.00;100840.38;5013345;28;20110;-75
2023/09/16 03:13:38;;;;;;;6.63;4.53;;;;;;;12.10;100.00;100865.44;4995061;28;20026;-76
2023/09/16 03:16:19;;;;;;;7.28;4.93;;;;;;;12.08;100.00;100864.31;5013112;28;20037;-75
2023/09/16 03:18:47;;;;;;;7.20;4.73;;;;;;;12.04;100.00;100858.00;5013672;28;20046;-75
2023/09/16 03:21:15;;;;;;;7.75;4.47;;;;;;;11.97;100.00;100847.69;5013783;28;20366;-75
2023/09/16 03:23:41;;;;;;;7.72;4.65;;;;;;;11.94;100.00;100857.28;5013356;28;20036;-75
2023/09/16 03:26:27;;;;;;;7.35;4.78;;;;;;;11.91;100.00;100852.53;5011756;28;20386;-76
2023/09/16 03:29:01;;;;;;;6.85;4.57;;;;;;;11.88;100.00;100853.50;5015332;28;20041;-76
2023/09/16 03:31:41;;;;;;;8.40;4.65;;;;;;;11.91;100.00;100843.16;5016747;28;20131;-76
2023/09/16 03:34:07;;;;;;;11.18;4.68;;;;;;;11.92;100.00;100856.16;4998865;28;20546;-76
2023/09/16 03:36:34;;;;;;;8.48;5.68;;;;;;;11.81;100.00;100848.91;5015669;28;20042;-75
2023/09/16 03:39:02;;;;;;;6.93;4.63;;;;;;;11.79;100.00;100853.56;5016518;28;20505;-74
2023/09/16 03:41:28;;;;;;;9.75;4.50;;;;;;;11.74;100.00;100859.97;5015329;28;20030;-75
2023/09/16 03:43:54;;;;;;;6.03;4.47;;;;;;;11.74;100.00;100854.22;4998888;28;20389;-76
2023/09/16 03:46:35;;;;;;;8.00;4.80;;;;;;;11.73;100.00;100852.66;5016367;28;20075;-76
2023/09/16 03:49:01;;;;;;;5.95;4.55;;;;;;;11.71;100.00;100855.22;5014964;28;20088;-78
2023/09/16 03:51:28;;;;;;;9.32;4.93;;;;;;;11.79;100.00;100850.69;5016136;28;20018;-75
2023/09/16 03:53:54;;;;;;;12.88;5.00;;;;;;;11.81;100.00;100851.00;5014903;28;20088;-76
2023/09/16 03:56:19;;;;;;;9.23;5.00;;;;;;;11.82;100.00;100849.72;4998654;28;20426;-76
2023/09/16 03:58:45;;;;;;;11.18;5.05;;;;;;;11.82;100.00;100847.66;5015907;28;20054;-77
2023/09/16 04:01:15;;;;;;;8.70;5.63;;;;;;;11.84;100.00;100850.81;5014979;28;20096;-76
2023/09/16 04:03:43;;;;;;;10.35;5.07;;;;;;;11.84;100.00;100847.16;5014936;28;20445;-76
2023/09/16 04:06:08;;;;;;;6.85;4.45;;;;;;;11.81;100.00;100842.44;5015038;28;20034;-76
2023/09/16 04:08:36;;;;;;;13.15;5.55;;;;;;;11.81;100.00;100853.88;5014922;28;20041;-75
2023/09/16 04:11:02;;;;;;;8.77;5.25;;;;;;;11.79;100.00;100842.91;5014889;28;20398;-77
2023/09/16 04:13:31;;;;;;;6.22;4.88;;;;;;;11.78;100.00;100847.03;5014593;28;20034;-76
2023/09/16 04:15:56;;;;;;;9.23;4.53;;;;;;;11.73;100.00;100839.13;5015998;28;20332;-75
2023/09/16 04:18:22;;;;;;;11.05;5.07;;;;;;;11.75;100.00;100842.31;5013835;28;20471;-76
2023/09/16 04:20:55;;;;;;;9.50;5.70;;;;;;;11.71;100.00;100841.69;5014425;28;20109;-76
2023/09/16 04:23:23;;;;;;;8.77;4.95;;;;;;;11.65;100.00;100837.13;5015991;28;20104;-76
2023/09/16 04:26:15;;;;;;;10.30;5.38;;;;;;;11.65;100.00;100840.78;5014213;28;20042;-77
2023/09/16 04:28:42;;;;;;;9.93;4.55;;;;;;;11.65;100.00;100855.09;5015392;28;20061;-76
2023/09/16 04:31:09;;;;;;;7.70;4.93;;;;;;;11.65;100.00;100842.84;5014726;28;20033;-75
2023/09/16 04:33:37;;;;;;;7.57;4.55;;;;;;;11.70;100.00;100854.44;5015599;28;20037;-78
2023/09/16 04:36:05;;;;;;;11.10;4.70;;;;;;;11.68;100.00;100851.25;5014461;28;20057;-76
2023/09/16 04:38:30;;;;;;;6.55;4.78;;;;;;;11.68;100.00;100851.25;5015090;28;20379;-77
2023/09/16 04:40:56;;;;;;;7.78;5.10;;;;;;;11.64;100.00;100850.63;5014901;28;20462;-78
2023/09/16 04:43:24;;;;;;;6.30;4.43;;;;;;;11.58;100.00;100837.47;5013310;28;20069;-77
2023/09/16 04:45:51;;;;;;;9.43;4.70;;;;;;;11.63;100.00;100845.41;5014559;28;20512;-76
2023/09/16 04:48:17;;;;;;;10.05;4.78;;;;;;;11.62;100.00;100847.47;5015178;28;20037;-77
2023/09/16 04:50:45;;;;;;;8.52;5.20;;;;;;;11.62;100.00;100852.38;5014112;28;20057;-76
2023/09/16 04:53:10;;;;;;;7.88;4.55;;;;;;;11.62;100.00;100856.06;5014256;28;20037;-76
2023/09/16 04:55:37;;;;;;;8.52;4.90;;;;;;;11.64;100.00;100850.63;5014802;28;20026;-79
2023/09/16 04:58:02;;;;;;;9.30;4.88;;;;;;;11.66;100.00;100853.81;5013160;28;20050;-77
2023/09/16 05:00:33;;;;;;;11.50;4.93;;;;;;;11.72;100.00;100856.78;5013734;28;20043;-76
2023/09/16 05:03:00;;;;;;;9.45;4.60;;;;;;;11.71;100.00;100858.09;5014675;28;20091;-75
2023/09/16 05:05:26;;;;;;;7.63;4.68;;;;;;;11.68;100.00;100856.97;4998749;28;20049;-76
2023/09/16 05:07:55;;;;;;;7.75;4.03;;;;;;;11.73;100.00;100852.66;5026402;28;20033;-76
2023/09/16 05:10:25;;;;;;;7.45;5.10;;;;;;;11.73;100.00;100847.72;5033478;28;20068;-76
2023/09/16 05:12:52;;;;;;;8.48;4.63;;;;;;;11.79;100.00;100848.63;5033189;28;20114;-75
2023/09/16 05:15:19;;;;;;;9.27;4.47;;;;;;;11.79;100.00;100848.63;5034800;28;20167;-78
2023/09/16 05:17:52;;;;;;;10.27;4.82;;;;;;;11.80;100.00;100847.34;5033464;28;20145;-77
2023/09/16 05:20:19;;;;;;;8.32;4.60;;;;;;;11.95;100.00;100846.59;5034555;28;20101;-76
2023/09/16 05:22:50;;;;;;;10.10;5.00;;;;;;;11.98;100.00;100848.47;5034255;28;20513;-77
2023/09/16 05:25:31;;;;;;;8.60;4.75;;;;;;;12.02;100.00;100860.53;5034030;28;20060;-75
2023/09/16 05:27:57;;;;;;;7.30;4.18;;;;;;;12.07;100.00;100854.13;5034003;28;20021;-77
2023/09/16 05:30:25;;;;;;;8.75;4.80;;;;;;;12.12;100.00;100853.44;5033942;28;20029;-76
2023/09/16 05:32:51;;;;;;;8.52;5.32;;;;;;;12.17;100.00;100853.56;5033483;28;20033;-76
2023/09/16 05:35:18;;;;;;;8.57;4.53;;;;;;;12.26;100.00;100853.47;5033840;28;20091;-76
2023/09/16 05:37:44;;;;;;;8.80;4.22;;;;;;;12.34;100.00;100845.31;5025580;28;20033;-76
2023/09/16 05:40:10;;;;;;;7.57;4.45;;;;;;;12.42;100.00;100857.19;5025743;28;20018;-75
2023/09/16 05:42:36;;;;;;;7.78;5.15;;;;;;;12.50;100.00;100855.53;5026456;28;20064;-78
2023/09/16 05:45:04;;;;;;;10.60;4.53;;;;;;;12.64;100.00;100852.69;5023382;28;20108;-76
2023/09/16 05:47:32;;;;;;;11.32;4.47;;;;;;;12.75;100.00;100846.31;5025597;28;20036;-76
2023/09/16 05:49:59;;;;;;;10.95;4.25;;;;;;;12.84;100.00;100843.38;5020151;28;20022;-76
2023/09/16 05:52:24;;;;;;;6.70;4.70;;;;;;;12.91;100.00;100847.91;5007612;28;20021;-75
2023/09/16 05:54:49;;;;;;;7.05;4.07;;;;;;;12.99;100.00;100851.97;5032531;28;20017;-75
2023/09/16 05:57:16;;;;;;;7.53;4.78;;;;;;;13.09;100.00;100850.56;5033371;28;20038;-75
2023/09/16 05:59:44;;;;;;;7.30;4.47;;;;;;;13.16;100.00;100846.47;5033624;28;20446;-78
2023/09/16 06:02:10;;;;;;;8.50;4.15;;;;;;;13.35;100.00;100854.34;5032477;28;20037;-76
2023/09/16 06:04:39;;;;;;;5.82;3.80;;;;;;;13.52;100.00;100854.66;5033199;28;20037;-78
2023/09/16 06:07:06;;;;;;;7.13;4.20;;;;;;;13.99;100.00;100851.34;5033674;28;20036;-76
2023/09/16 06:09:33;;;;;;;7.93;4.22;;;;;;;14.71;100.00;100844.84;5015999;28;20029;-77
2023/09/16 06:11:59;;;;;;;7.35;3.95;;;;;;;15.76;100.00;100847.72;5034076;28;20040;-77
2023/09/16 06:14:25;;;;;;;8.05;3.90;;;;;;;16.79;100.00;100831.84;5034035;28;20021;-77
2023/09/16 06:16:52;;;;;;;8.07;4.25;;;;;;;17.87;100.00;100820.38;5034290;28;20025;-76
2023/09/16 06:19:24;;;;;;;9.48;4.43;;;;;;;19.16;100.00;100818.28;5016385;28;20029;-78
2023/09/16 06:21:52;;;;;;;7.22;4.13;;;;;;;19.89;100.00;100798.75;5033577;28;20367;-79
2023/09/16 06:24:19;;;;;;;13.32;5.00;;;;;;;20.64;100.00;100793.78;5034023;28;20034;-77
2023/09/16 06:26:45;;;;;;;7.38;4.63;;;;;;;21.13;100.00;100810.94;5020855;28;20022;-76
2023/09/16 06:29:11;;;;;;;8.60;4.45;;;;;;;21.70;100.00;100797.72;5013832;28;20069;-80
2023/09/16 06:31:45;;;;;;;7.45;3.97;;;;;;;22.21;100.00;100794.56;5013962;28;20053;-80
2023/09/16 06:34:11;;;;;;;6.60;4.05;;;;;;;22.44;100.00;100795.63;5013056;28;20105;-80
2023/09/16 06:36:41;;;;;;;8.27;4.40;;;;;;;22.59;100.00;100789.97;5014417;28;20044;-82
2023/09/16 06:39:07;;;;;;;5.78;4.22;;;;;;;22.81;100.00;100791.56;5013207;28;20102;-81
2023/09/16 06:41:33;;;;;;;7.45;3.95;;;;;;;23.49;100.00;100800.91;4996681;28;20042;-82
2023/09/16 06:44:01;;;;;;;7.15;4.30;;;;;;;23.95;100.00;100804.16;5016037;28;20060;-81
2023/09/16 06:46:27;;;;;;;5.63;4.00;;;;;;;24.08;100.00;100801.09;5025406;28;20028;-81
2023/09/16 06:48:54;;;;;;;7.32;4.03;;;;;;;23.79;100.00;100792.41;5017596;28;20022;-77
2023/09/16 06:51:19;;;;;;;7.68;4.22;;;;;;;23.91;100.00;100797.88;5014022;28;20097;-80
2023/09/16 06:53:46;;;;;;;6.18;4.53;;;;;;;24.40;100.00;100803.59;5014711;28;20422;-83
2023/09/16 06:56:12;;;;;;;6.32;3.95;;;;;;;24.26;100.00;100808.03;5033426;28;20478;-80
2023/09/16 06:58:39;;;;;;;7.65;4.13;;;;;;;24.44;100.00;100806.94;5033034;28;20056;-83
2023/09/16 07:01:15;;;;;;;4.78;3.88;;;;;;;24.86;99.49;100810.34;5033076;28;20108;-81
2023/09/16 07:03:44;;;;;;;14.00;4.32;;;;;;;24.72;99.84;100812.66;5035901;28;20067;-82
2023/09/16 07:06:11;;;;;;;7.07;4.35;;;;;;;24.62;99.15;100756.91;5037273;28;20018;-83
2023/09/16 07:08:38;;;;;;;5.57;4.07;;;;;;;25.65;97.75;100807.09;5039944;28;20032;-84
2023/09/16 07:11:06;;;;;;;6.57;4.25;;;;;;;26.00;96.63;100805.28;5029119;28;20033;-80
2023/09/16 07:13:31;;;;;;;5.68;4.05;;;;;;;26.35;92.26;100803.41;5036639;28;20131;-81
2023/09/16 07:15:57;;;;;;;7.20;4.18;;;;;;;26.56;93.31;100791.38;5035469;28;20065;-80
2023/09/16 07:18:23;;;;;;;7.15;3.92;;;;;;;26.87;88.53;100792.00;5034439;28;20026;-78
2023/09/16 07:20:49;;;;;;;9.35;3.92;;;;;;;26.98;88.04;100795.25;5036558;28;20029;-74
2023/09/16 07:23:15;;;;;;;6.35;4.22;;;;;;;26.98;85.15;100794.47;5036383;28;20497;-75
2023/09/16 07:25:41;;;;;;;3.92;3.47;;;;;;;26.92;86.46;100788.81;5026665;28;20034;-75
2023/09/16 07:28:07;;;;;;;7.00;4.03;;;;;;;27.21;85.87;100800.91;5015095;28;20030;-76
2023/09/16 07:30:34;;;;;;;6.13;3.80;;;;;;;27.05;83.77;100800.28;4999013;28;20057;-77
2023/09/16 07:33:01;;;;;;;9.60;4.03;;;;;;;27.16;87.76;100796.84;5014926;28;20061;-75
2023/09/16 07:35:26;;;;;;;6.75;3.75;;;;;;;27.04;84.88;100795.78;5016411;28;20057;-76
2023/09/16 07:37:53;;;;;;;5.90;4.10;;;;;;;26.80;85.39;100795.75;4982347;28;20498;-77
2023/09/16 07:40:25;;;;;;;7.13;3.88;;;;;;;26.99;87.99;100793.88;5015667;28;20025;-76
2023/09/16 07:42:51;;;;;;;5.28;4.07;;;;;;;27.15;85.79;100791.59;5014611;28;20048;-78
2023/09/16 07:45:17;;;;;;;6.78;4.30;;;;;;;27.51;82.62;100786.00;5014349;28;20369;-78
2023/09/16 07:47:42;;;;;;;5.70;3.80;;;;;;;27.88;85.57;100795.81;5014819;28;20022;-77
2023/09/16 07:50:12;;;;;;;6.25;4.10;;;;;;;27.86;82.23;100780.94;4997010;28;20103;-78
2023/09/16 07:52:42;;;;;;;11.65;4.00;;;;;;;28.07;81.24;100785.63;5013175;28;20112;-77
2023/09/16 07:55:13;;;;;;;6.13;4.15;;;;;;;28.22;83.77;100783.28;5014458;28;20418;-77
2023/09/16 07:57:39;;;;;;;;;;;;;;;28.61;79.30;100778.47;5014299;28;20081;-78
2023/09/16 08:00:07;;;;;;;7.30;3.87;;;;;;;28.81;80.45;100777.19;5014596;28;19933;-78
2023/09/16 08:02:33;;;;;;;5.78;4.25;;;;;;;28.98;75.57;100778.53;5014650;28;20037;-77
2023/09/16 08:04:59;;;;;;;4.80;3.70;;;;;;;28.97;78.97;100782.84;5014583;28;20450;-77
2023/09/16 08:07:25;;;;;;;7.88;3.42;;;;;;;28.41;76.42;100756.19;5014619;28;20017;-79
2023/09/16 08:09:51;;;;;;;7.10;3.78;;;;;;;28.67;78.71;100778.19;5014969;28;20360;-75
2023/09/16 08:12:19;;;;;;;9.65;3.40;;;;;;;28.78;81.51;100757.84;5015684;28;20038;-76
2023/09/16 08:14:46;;;;;;;6.78;4.15;;;;;;;29.03;77.47;100765.72;5015667;28;20021;-76
2023/09/16 08:17:12;;;;;;;5.93;3.90;;;;;;;29.29;77.50;100768.56;5015587;28;20053;-79
2023/09/16 08:19:38;;;;;;;6.82;4.90;;;;;;;29.38;76.34;100758.22;5015734;28;20104;-77
2023/09/16 08:22:04;;;;;;;4.97;3.50;;;;;;;29.39;77.28;100756.81;5015534;28;20030;-75
2023/09/16 08:24:30;;;;;;;8.27;4.22;;;;;;;29.05;75.53;100751.91;5015834;28;20029;-76
2023/09/16 08:26:58;;;;;;;7.05;3.88;;;;;;;28.82;73.82;100763.25;5015806;28;20076;-77
2023/09/16 08:29:25;;;;;;;4.93;4.25;;;;;;;28.57;74.08;100765.59;5015726;28;20072;-76
2023/09/16 08:31:50;;;;;;;9.57;3.97;;;;;;;28.50;77.22;100751.75;5015663;28;20041;-76
2023/09/16 08:34:16;;;;;;;5.55;3.30;;;;;;;28.70;80.10;100762.25;5015300;28;20521;-76
2023/09/16 08:36:42;;;;;;;5.65;3.55;;;;;;;28.84;78.44;100752.41;5014944;28;20031;-78
2023/09/16 08:39:09;;;;;;;5.68;4.05;;;;;;;28.80;77.04;100754.25;5015299;28;20340;-77
2023/09/16 08:42:06;;;;;;;5.65;3.70;;;;;;;28.91;77.13;100750.75;5013886;28;20121;-78
2023/09/16 08:44:37;;;;;;;6.68;4.00;;;;;;;28.64;76.26;100761.78;5015276;28;20044;-77
2023/09/16 08:47:29;;;;;;;7.43;3.60;;;;;;;28.53;76.99;100753.50;5015024;28;20021;-77
2023/09/16 08:50:08;;;;;;;6.07;3.28;;;;;;;28.30;81.09;100760.44;5015159;28;20030;-77
2023/09/16 08:52:55;;;;;;;5.20;4.15;;;;;;;28.33;81.14;100756.28;5015340;28;20033;-77
2023/09/16 08:55:21;;;;;;;6.97;3.58;;;;;;;28.33;81.30;100752.56;5014814;28;20033;-77
2023/09/16 08:58:19;;;;;;;4.15;3.15;;;;;;;28.40;81.13;100758.34;5014560;28;20503;-74
2023/09/16 09:00:46;;;;;;;8.23;3.83;;;;;;;28.27;80.10;100752.84;4977153;28;20499;-75
2023/09/16 09:03:11;;;;;;;6.15;3.80;;;;;;;28.17;79.96;100757.09;4995975;28;20054;-76
2023/09/16 09:05:44;;;;;;;7.32;3.40;;;;;;;28.12;81.25;100747.16;5014983;28;20089;-76
2023/09/16 09:08:11;;;;;;;4.72;3.45;;;;;;;28.05;81.56;100748.03;5014440;28;20049;-78
2023/09/16 09:10:40;;;;;;;7.88;3.42;;;;;;;27.77;82.47;100742.66;5013689;28;20038;-78
2023/09/16 09:13:14;;;;;;;5.43;3.47;;;;;;;27.60;85.79;100746.38;4997432;28;20038;-77
2023/09/16 09:15:42;;;;;;;5.93;3.65;;;;;;;27.51;87.92;100739.03;5014725;28;20030;-76
2023/09/16 09:18:11;;;;;;;8.82;4.32;;;;;;;27.41;86.56;100740.31;5014420;28;20030;-76
2023/09/16 09:20:37;;;;;;;5.40;3.60;;;;;;;27.07;89.74;100738.81;5014813;28;20030;-77
2023/09/16 09:23:03;;;;;;;6.72;3.78;;;;;;;27.16;92.30;100732.28;4997160;28;20036;-76
2023/09/16 09:25:36;;;;;;;5.65;4.25;;;;;;;27.24;91.58;100729.28;5012847;28;20030;-77
2023/09/16 09:28:02;;;;;;;5.90;3.60;;;;;;;27.22;91.99;100729.09;5013631;28;20026;-76
2023/09/16 09:30:29;;;;;;;5.85;3.33;;;;;;;27.26;90.54;100732.38;4996919;28;20037;-78
2023/09/16 09:32:57;;;;;;;7.45;3.92;;;;;;;26.95;92.78;100728.19;5014884;28;20033;-75
2023/09/16 09:35:27;;;;;;;6.00;3.70;;;;;;;26.88;95.44;100729.78;5013419;28;20052;-78
2023/09/16 09:37:53;;;;;;;6.53;3.63;;;;;;;26.82;94.45;100731.41;5014179;28;20030;-77
2023/09/16 09:40:19;;;;;;;6.65;3.85;;;;;;;26.76;96.21;100722.88;5014499;28;20033;-77
2023/09/16 09:42:47;;;;;;;6.63;3.50;;;;;;;26.87;99.07;100719.44;5014752;28;20030;-77
2023/09/16 09:45:16;;;;;;;7.35;3.33;;;;;;;27.08;98.01;100719.06;5013332;28;20037;-77
2023/09/16 09:47:51;;;;;;;10.82;3.78;;;;;;;27.24;96.31;100717.56;5012833;28;20785;-77
2023/09/16 09:50:19;;;;;;;5.63;3.08;;;;;;;27.14;97.28;100714.50;5014419;28;20055;-76
2023/09/16 09:52:47;;;;;;;5.53;3.63;;;;;;;26.79;96.38;100709.94;5012677;28;20038;-76
2023/09/16 09:55:28;;;;;;;6.82;3.95;;;;;;;26.70;98.14;100714.28;5014297;28;20109;-76
2023/09/16 09:57:55;;;;;;;7.50;3.33;;;;;;;26.55;100.00;100708.50;5013547;28;20104;-78
2023/09/16 10:00:36;;;;;;;6.32;3.22;;;;;;;26.64;100.00;100707.06;5013922;28;20549;-75
2023/09/16 10:03:02;;;;;;;;;;;;;;;26.59;100.00;100708.88;5013401;28;20087;-77
2023/09/16 10:05:35;;;;;;;5.97;3.80;;;;;;;26.36;100.00;100705.31;5014213;28;19963;-78
2023/09/16 10:08:01;;;;;;;7.15;3.50;;;;;;;26.30;100.00;100696.75;5012671;28;20076;-76
2023/09/16 10:10:28;;;;;;;5.82;3.22;;;;;;;26.34;100.00;100693.41;5012543;28;20490;-77
2023/09/16 10:12:55;;;;;;;7.22;3.90;;;;;;;26.34;100.00;100696.34;5014007;28;20061;-75
2023/09/16 10:15:25;;;;;;;7.05;3.35;;;;;;;26.25;100.00;100699.91;5014135;28;20077;-78
2023/09/16 10:17:51;;;;;;;6.53;3.10;;;;;;;26.06;100.00;100691.59;5014196;28;20034;-77
2023/09/16 10:20:18;;;;;;;8.55;3.65;;;;;;;25.86;100.00;100695.59;5013794;28;20072;-78
2023/09/16 10:22:51;;;;;;;4.57;3.30;;;;;;;25.73;100.00;100687.81;5013685;28;20021;-76
2023/09/16 10:25:17;;;;;;;4.90;3.33;;;;;;;25.77;100.00;100676.50;5011965;28;20054;-75
2023/09/16 10:28:03;;;;;;;11.75;3.70;;;;;;;25.80;100.00;100686.22;5012803;28;20038;-76
2023/09/16 10:30:32;;;;;;;6.20;3.20;;;;;;;25.54;100.00;100677.91;5012427;28;20034;-77
2023/09/16 10:33:06;;;;;;;5.32;3.63;;;;;;;25.29;100.00;100672.69;4996459;28;20444;-76
2023/09/16 10:35:37;;;;;;;6.50;3.20;;;;;;;25.30;100.00;100670.56;4980252;28;20040;-77
2023/09/16 10:38:06;;;;;;;5.28;3.20;;;;;;;25.22;100.00;100673.50;5013959;28;20036;-77
2023/09/16 10:40:32;;;;;;;6.72;3.20;;;;;;;25.13;100.00;100667.47;5000438;28;20129;-76
2023/09/16 10:43:01;;;;;;;5.82;4.07;;;;;;;25.03;100.00;100658.53;4999928;28;20037;-77
2023/09/16 10:45:27;;;;;;;7.35;4.13;;;;;;;24.88;100.00;100670.22;5016540;28;20092;-76
2023/09/16 10:47:53;;;;;;;10.10;4.15;;;;;;;24.73;100.00;100676.06;5017383;28;20383;-76
2023/09/16 10:50:29;;;;;;;5.60;3.03;;;;;;;24.71;100.00;100670.00;5016240;28;20034;-77
2023/09/16 10:52:58;;;;;;;8.40;3.67;;;;;;;24.67;100.00;100661.63;5016649;28;20156;-77
2023/09/16 10:55:42;;;;;;;5.47;3.25;;;;;;;24.56;100.00;100662.00;5017685;28;20033;-77
2023/09/16 10:58:26;;;;;;;4.70;3.92;;;;;;;24.40;100.00;100664.13;5016770;28;20077;-74
2023/09/16 11:01:00;;;;;;;5.95;3.53;;;;;;;24.03;100.00;100659.75;5016176;28;20034;-75
2023/09/16 11:03:34;;;;;;;6.35;3.08;;;;;;;23.88;100.00;100658.91;5017357;28;20029;-76
2023/09/16 11:06:01;;;;;;;6.35;3.60;;;;;;;23.83;100.00;100663.56;5014957;28;20038;-78
2023/09/16 11:08:28;;;;;;;7.55;3.67;;;;;;;23.97;100.00;100655.44;5016709;28;20050;-77
2023/09/16 11:10:58;;;;;;;6.35;3.72;;;;;;;23.98;100.00;100643.19;4999060;28;20033;-76
2023/09/16 11:13:28;;;;;;;6.43;3.60;;;;;;;23.93;100.00;100660.88;4983730;28;20030;-77
2023/09/16 11:16:00;;;;;;;6.40;2.80;;;;;;;23.93;100.00;100655.03;4999303;28;20037;-75
2023/09/16 11:18:29;;;;;;;5.07;3.17;;;;;;;23.78;100.00;100665.31;4982951;28;20451;-77
2023/09/16 11:20:55;;;;;;;7.43;3.35;;;;;;;23.72;100.00;100658.84;4999207;28;20475;-75
2023/09/16 11:23:22;;;;;;;4.30;3.10;;;;;;;23.68;100.00;100660.59;5016742;28;20087;-77
2023/09/16 11:25:47;;;;;;;5.15;3.17;;;;;;;23.72;100.00;100653.03;5016104;28;20149;-75
2023/09/16 11:28:36;;;;;;;6.60;3.00;;;;;;;23.73;100.00;100651.66;4999105;28;20483;-75